createdAt,value
2022-12-12T00:00:07.656Z,-3.8
2022-12-12T00:20:02.638Z,-3.8
2022-12-12T00:40:02.843Z,-3.8
2022-12-12T01:00:02.121Z,-3.7
2022-12-12T01:20:02.880Z,-3.6
2022-12-12T01:40:02.535Z,-3.4
2022-12-12T02:00:03.173Z,-3.4
2022-12-12T02:20:03.004Z,-3.5
2022-12-12T02:40:02.539Z,-3.3
2022-12-12T03:00:03.007Z,-3.2
2022-12-12T03:20:02.453Z,-3.2
2022-12-12T03:40:02.910Z,-3.1
2022-12-12T04:00:02.326Z,-3.2
2022-12-12T04:20:03.391Z,-3
2022-12-12T04:40:03.006Z,-3
2022-12-12T05:00:02.600Z,-3
2022-12-12T05:20:02.424Z,-3
2022-12-12T05:40:02.916Z,-3
2022-12-12T06:00:02.435Z,-2.9
2022-12-12T06:20:03.155Z,-2.8
2022-12-12T06:40:02.531Z,-2.6
2022-12-12T07:00:02.963Z,-2.6
2022-12-12T07:20:02.334Z,-2.5
2022-12-12T07:40:02.763Z,-2.4
2022-12-12T08:00:03.235Z,-2.4
2022-12-12T08:20:02.875Z,-2.3
2022-12-12T08:40:02.681Z,-2.4
2022-12-12T09:00:03.468Z,-2.4
2022-12-12T09:20:02.604Z,-2.2
2022-12-12T09:40:03.165Z,-2.4
2022-12-12T10:00:04.109Z,-2.2
2022-12-12T10:20:02.856Z,-2.2
2022-12-12T10:40:02.318Z,-2.3
2022-12-12T11:00:02.721Z,-1.6
2022-12-12T11:20:02.517Z,-1.4
2022-12-12T11:40:03.147Z,-1.6
2022-12-12T12:00:03.466Z,-1.7
2022-12-12T12:20:02.226Z,-1.7
2022-12-12T12:40:02.614Z,-2
2022-12-12T13:00:02.899Z,-2.6
2022-12-12T13:20:02.843Z,-2.9
2022-12-12T13:40:02.405Z,-2.9
2022-12-12T14:00:03.377Z,-3.1
2022-12-12T14:20:03.072Z,-3.2
2022-12-12T14:40:02.649Z,-3.2
2022-12-12T15:00:03.384Z,-3.3
2022-12-12T15:20:02.991Z,-3.5
2022-12-12T15:40:02.605Z,-3.5
2022-12-12T16:00:03.250Z,-3.5
2022-12-12T16:20:03.143Z,-3.7
2022-12-12T16:40:02.933Z,-3.8
2022-12-12T17:00:02.782Z,-3.9
2022-12-12T17:20:02.600Z,-3.9
2022-12-12T17:40:03.245Z,-4
2022-12-12T18:00:04.070Z,-4
2022-12-12T18:20:02.673Z,-3.9
2022-12-12T18:40:03.097Z,-4
2022-12-12T19:00:02.719Z,-4.1
2022-12-12T19:20:02.449Z,-4.2
2022-12-12T19:40:03.142Z,-4.5
2022-12-12T20:00:02.819Z,-4.6
2022-12-12T20:20:04.575Z,-4.7
2022-12-12T20:40:03.661Z,-4.9
2022-12-12T21:00:03.312Z,-4.9
2022-12-12T21:20:06.791Z,-5
2022-12-12T21:40:02.591Z,-4.9
2022-12-12T22:00:03.141Z,-4.6
2022-12-12T22:20:02.928Z,-4.5
2022-12-12T22:40:02.402Z,-4.3
2022-12-12T23:00:03.116Z,-4.2
2022-12-12T23:20:02.765Z,-4.2
2022-12-12T23:40:02.338Z,-4
